Time;durP1;ratioP1;P1;durP2;ratioP2;P2;SDS_P1;SDS_P2;PMS_P1;PMS_P2;Temp;Humidity;BMP_temperature;BMP_pressure;BME280_temperature;BME280_humidity;BME280_pressure;Samples;Min_cycle;Max_cycle;Signal;HPM_P1;HPM_P2
2022/11/11 00:02:21;;;;;;;24.90;13.80;;;;;;;9.06;76.83;101601.59;102044;1294;138446;-88
2022/11/11 00:05:11;;;;;;;19.80;12.40;;;;;;;9.02;77.15;101602.46;101995;1301;108573;-88
2022/11/11 00:08:00;;;;;;;22.10;13.70;;;;;;;9.03;77.12;101601.75;101877;1284;98240;-88
2022/11/11 00:10:50;;;;;;;21.40;13.10;;;;;;;9.02;77.14;101598.23;101914;1301;109004;-91
2022/11/11 00:13:41;;;;;;;20.90;13.20;;;;;;;8.99;77.17;101601.23;101843;1291;95479;-89
2022/11/11 00:25:04;;;;;;;20.60;12.70;;;;;;;8.99;77.27;101606.73;101874;1294;140074;-88
2022/11/11 00:25:55;;;;;;;19.30;12.20;;;;;;;9.04;77.44;101606.72;101908;1301;108920;-87
2022/11/11 00:29:05;;;;;;;20.10;12.70;;;;;;;9.06;77.60;101611.68;101882;1292;95743;-87
2022/11/11 00:38:44;;;;;;;24.50;14.00;;;;;;;9.07;77.42;101600.87;101889;1309;98105;-88
2022/11/11 00:41:26;;;;;;;22.80;14.50;;;;;;;9.09;77.52;101599.10;101931;1301;109047;-88
2022/11/11 00:44:16;;;;;;;21.80;14.10;;;;;;;9.12;77.56;101601.22;102081;1294;95995;-88
2022/11/11 00:53:24;;;;;;;26.80;15.90;;;;;;;9.14;77.29;101599.63;102064;1301;102519;-88
2022/11/11 00:56:15;;;;;;;21.40;13.50;;;;;;;9.16;77.47;101605.30;101827;1307;107303;-87
2022/11/11 00:59:07;;;;;;;22.00;13.60;;;;;;;9.22;77.62;101605.11;101823;1302;95275;-88
2022/11/11 01:01:56;;;;;;;24.00;14.60;;;;;;;9.28;77.47;101607.40;102123;1284;95576;-89
2022/11/11 01:04:57;;;;;;;24.40;14.50;;;;;;;9.36;77.36;101607.75;101857;1301;138536;-87
2022/11/11 01:07:48;;;;;;;24.20;14.90;;;;;;;9.39;77.23;101600.11;101867;1284;100392;-86
2022/11/11 01:10:40;;;;;;;25.70;15.80;;;;;;;9.39;77.31;101601.53;101940;1309;139752;-88
2022/11/11 01:13:32;;;;;;;26.90;16.80;;;;;;;9.43;77.26;101601.17;102055;1289;95383;-88
2022/11/11 01:16:24;;;;;;;23.80;15.70;;;;;;;9.48;77.07;101604.35;101937;1293;140049;-88
2022/11/11 01:19:13;;;;;;;24.10;15.50;;;;;;;9.50;76.99;101608.60;102100;1306;109813;-88
2022/11/11 01:22:03;;;;;;;24.50;15.60;;;;;;;9.52;77.33;101608.07;101745;1298;140314;-87
2022/11/11 01:25:02;;;;;;;24.50;14.00;;;;;;;9.54;77.11;101604.17;101963;1295;107447;-89
2022/11/11 01:27:52;;;;;;;22.80;13.60;;;;;;;9.55;77.02;101599.55;101912;1295;139233;-88
2022/11/11 01:30:41;;;;;;;24.40;15.20;;;;;;;9.56;76.81;101599.02;101953;1291;95243;-89
2022/11/11 01:33:31;;;;;;;24.70;15.10;;;;;;;9.56;77.01;101598.30;101831;1294;139137;-88
2022/11/11 01:36:22;;;;;;;22.40;14.60;;;;;;;9.59;77.08;101596.17;102019;1309;99459;-89
2022/11/11 01:39:12;;;;;;;27.50;15.70;;;;;;;9.64;76.97;101599.17;101938;1301;139287;-86
2022/11/11 01:42:03;;;;;;;24.70;14.20;;;;;;;9.66;76.87;101596.15;102010;1301;95328;-87
2022/11/11 01:44:52;;;;;;;21.50;13.80;;;;;;;9.66;77.00;101592.42;101930;1301;139582;-87
2022/11/11 01:51:14;;;;;;;21.90;12.20;;;;;;;9.73;76.69;101588.86;101736;1294;139838;-87
2022/11/11 01:54:08;;;;;;;19.20;12.90;;;;;;;9.74;76.74;101584.42;101942;1287;108938;-89
2022/11/11 01:57:19;;;;;;;20.80;12.20;;;;;;;9.73;76.64;101579.10;101964;1298;96797;-88
2022/11/11 02:00:15;;;;;;;20.70;12.30;;;;;;;9.74;76.60;101574.65;101900;1291;95823;-88
2022/11/11 02:03:10;;;;;;;18.20;11.70;;;;;;;9.76;76.57;101571.48;101852;1298;139220;-87
2022/11/11 02:06:00;;;;;;;18.90;11.40;;;;;;;9.77;76.54;101571.81;101887;1285;99455;-88
2022/11/11 02:08:49;;;;;;;20.70;12.20;;;;;;;9.78;76.42;101570.91;101845;1301;139163;-88
2022/11/11 02:14:52;;;;;;;20.20;12.30;;;;;;;9.73;76.40;101567.58;101743;1308;139170;-89
2022/11/11 02:17:42;;;;;;;19.40;11.90;;;;;;;9.67;76.50;101564.58;101997;1301;109974;-87
2022/11/11 02:20:36;;;;;;;19.70;12.10;;;;;;;9.66;76.56;101569.55;101943;1301;98118;-87
2022/11/11 02:23:33;;;;;;;20.20;10.90;;;;;;;9.69;76.64;101566.17;101871;1308;108896;-88
2022/11/11 02:26:24;;;;;;;20.30;11.90;;;;;;;9.67;76.45;101561.91;101990;1301;95221;-89
2022/11/11 02:29:17;;;;;;;19.10;11.90;;;;;;;9.66;76.33;101562.46;101959;1285;95655;-88
2022/11/11 02:32:09;;;;;;;19.50;11.70;;;;;;;9.67;76.26;101565.83;101953;1292;112216;-92
2022/11/11 02:34:58;;;;;;;20.10;12.20;;;;;;;9.67;76.19;101566.35;101703;1301;139018;-88
2022/11/11 02:37:52;;;;;;;18.90;11.30;;;;;;;9.67;76.26;101574.52;101941;1301;110435;-87
2022/11/11 02:41:55;;;;;;;20.00;11.20;;;;;;;9.64;76.22;101575.77;101851;1293;138661;-91
2022/11/11 02:43:54;;;;;;;22.60;11.50;;;;;;;9.63;76.11;101584.27;101956;1291;95555;-88
2022/11/11 02:46:44;;;;;;;19.20;11.30;;;;;;;9.62;76.16;101588.54;101768;1284;139935;-84
2022/11/11 02:49:34;;;;;;;19.70;11.20;;;;;;;9.57;76.00;101586.25;101924;1295;97209;-86
2022/11/11 02:52:23;;;;;;;19.50;11.10;;;;;;;9.51;76.11;101587.51;101894;1301;139185;-87
2022/11/11 02:55:13;;;;;;;17.60;11.00;;;;;;;9.52;76.23;101594.77;102001;1307;95282;-88
2022/11/11 02:58:06;;;;;;;19.00;10.80;;;;;;;9.52;76.17;101596.55;101829;1301;139097;-87
2022/11/11 03:00:56;;;;;;;17.50;10.30;;;;;;;9.51;76.10;101597.96;101950;1287;110980;-87
2022/11/11 03:03:45;;;;;;;18.20;10.60;;;;;;;9.48;76.06;101600.63;101911;1278;140878;-89
2022/11/11 03:06:35;;;;;;;18.80;11.00;;;;;;;9.45;76.10;101598.52;101986;1285;109010;-89
2022/11/11 03:09:27;;;;;;;17.90;11.00;;;;;;;9.39;76.15;101601.36;101811;1302;139431;-89
2022/11/11 03:12:17;;;;;;;19.70;10.90;;;;;;;9.35;76.58;101599.77;101963;1291;95325;-92
2022/11/11 03:15:08;;;;;;;18.60;11.00;;;;;;;9.41;76.45;101602.59;101739;1306;140159;-88
2022/11/11 03:17:58;;;;;;;19.80;10.80;;;;;;;9.44;76.42;101599.58;102058;1287;98266;-89
2022/11/11 03:21:07;;;;;;;19.20;11.00;;;;;;;9.45;76.26;101610.03;101937;1292;110768;-89
2022/11/11 03:24:16;;;;;;;16.70;10.40;;;;;;;9.41;76.32;101617.66;101964;1309;95239;-89
2022/11/11 03:27:05;;;;;;;17.00;10.30;;;;;;;9.37;76.32;101619.09;101873;1277;141294;-88
2022/11/11 03:29:55;;;;;;;18.80;11.10;;;;;;;9.37;76.26;101609.70;101962;1301;109234;-90
2022/11/11 03:32:46;;;;;;;18.20;10.70;;;;;;;9.36;76.43;101601.73;102019;1308;98285;-89
2022/11/11 03:35:36;;;;;;;18.10;10.40;;;;;;;9.34;76.50;101611.11;101984;1302;107830;-89
2022/11/11 03:38:26;;;;;;;19.60;10.40;;;;;;;9.35;76.60;101612.17;101966;1301;95587;-92
2022/11/11 03:41:15;;;;;;;19.70;10.50;;;;;;;9.33;76.43;101605.45;101962;1301;95193;-88
2022/11/11 03:44:06;;;;;;;19.30;11.20;;;;;;;9.34;76.58;101610.23;102171;1286;109091;-91
2022/11/11 03:46:56;;;;;;;18.10;10.10;;;;;;;9.33;76.56;101615.73;101966;1287;140274;-88
2022/11/11 03:49:46;;;;;;;21.80;10.90;;;;;;;9.32;76.67;101624.59;102124;1287;110791;-88
2022/11/11 03:52:43;;;;;;;18.90;10.30;;;;;;;9.33;76.72;101627.61;101957;1291;139210;-88
2022/11/11 03:55:32;;;;;;;17.70;10.50;;;;;;;9.35;76.72;101625.48;101996;1293;95154;-89
2022/11/11 03:58:22;;;;;;;19.00;10.10;;;;;;;9.35;76.67;101620.33;101936;1307;140445;-89
2022/11/11 04:10:21;;;;;;;19.00;10.30;;;;;;;9.31;76.69;101621.04;102060;1291;99553;-89
2022/11/11 04:10:37;;;;;;;17.50;10.10;;;;;;;9.28;76.83;101621.95;101965;1292;139539;-89
2022/11/11 04:16:34;;;;;;;21.20;9.80;;;;;;;9.32;76.78;101626.01;101998;1302;139617;-89
2022/11/11 04:22:30;;;;;;;19.10;10.00;;;;;;;9.35;76.74;101629.91;101937;1301;139627;-89
2022/11/11 04:34:50;;;;;;;17.90;10.00;;;;;;;9.49;76.36;101662.85;101828;1294;140051;-89
2022/11/11 04:37:48;;;;;;;16.70;10.10;;;;;;;9.45;76.47;101659.33;101962;1301;95890;-89
2022/11/11 04:47:05;;;;;;;17.40;10.00;;;;;;;9.47;76.58;101654.70;101586;1294;140438;-89
2022/11/11 04:49:55;;;;;;;15.30;9.20;;;;;;;9.49;76.48;101647.25;101988;1309;109002;-93
2022/11/11 04:52:45;;;;;;;17.30;9.20;;;;;;;9.51;76.55;101647.42;101909;1298;140029;-89
2022/11/11 04:58:38;;;;;;;17.40;9.30;;;;;;;9.53;76.49;101650.98;101823;1301;139382;-89
2022/11/11 05:04:32;;;;;;;16.20;8.90;;;;;;;9.50;76.58;101647.07;101744;1303;139495;-89
2022/11/11 05:10:32;;;;;;;16.10;8.40;;;;;;;9.54;76.57;101647.77;101917;1308;139179;-92
2022/11/11 05:22:49;;;;;;;16.30;8.60;;;;;;;9.55;76.50;101656.99;101897;1301;139485;-89
2022/11/11 05:25:39;;;;;;;17.10;9.00;;;;;;;9.54;76.61;101642.64;101947;1287;95169;-87
2022/11/11 05:28:28;;;;;;;16.00;8.20;;;;;;;9.53;76.56;101638.03;102073;1302;138483;-87
2022/11/11 05:31:20;;;;;;;16.50;8.60;;;;;;;9.53;76.64;101633.23;101986;1301;99592;-88
2022/11/11 05:34:12;;;;;;;17.50;10.00;;;;;;;9.51;76.72;101642.11;101925;1302;139520;-90
2022/11/11 05:37:02;;;;;;;19.00;9.40;;;;;;;9.54;76.77;101650.44;101956;1291;95228;-90
2022/11/11 05:39:58;;;;;;;15.70;8.10;;;;;;;9.56;76.73;101646.70;101973;1300;139336;-88
2022/11/11 05:42:47;;;;;;;15.40;8.10;;;;;;;9.59;76.88;101634.11;102024;1294;109833;-88
2022/11/11 05:45:43;;;;;;;15.70;8.30;;;;;;;9.65;76.86;101637.82;101870;1301;139832;-88
2022/11/11 05:51:48;;;;;;;16.80;7.80;;;;;;;9.74;76.69;101639.03;101858;1285;139379;-87
2022/11/11 05:54:39;;;;;;;15.00;8.10;;;;;;;9.82;76.60;101643.09;102046;1284;95672;-87
2022/11/11 05:57:31;;;;;;;13.70;7.10;;;;;;;9.85;76.19;101642.20;101884;1291;139110;-89
2022/11/11 06:00:21;;;;;;;14.80;8.00;;;;;;;9.86;76.12;101648.23;102221;1291;96234;-89
2022/11/11 06:03:10;;;;;;;14.90;7.50;;;;;;;9.82;76.40;101645.22;101975;1307;139100;-89
2022/11/11 06:06:02;;;;;;;17.60;8.10;;;;;;;9.86;76.26;101651.95;102070;1284;96404;-89
2022/11/11 06:08:56;;;;;;;15.40;7.60;;;;;;;9.81;76.42;101649.66;101957;1295;95263;-89
2022/11/11 06:11:46;;;;;;;16.10;7.90;;;;;;;9.84;76.55;101645.21;102068;1306;109894;-90
2022/11/11 06:14:39;;;;;;;20.90;9.60;;;;;;;9.88;76.67;101648.75;102082;1284;99684;-88
2022/11/11 06:17:31;;;;;;;19.70;9.90;;;;;;;9.92;76.48;101646.26;102044;1301;109108;-89
2022/11/11 06:20:23;;;;;;;26.20;11.60;;;;;;;9.93;76.49;101639.52;102071;1301;96015;-89
2022/11/11 06:23:13;;;;;;;28.40;12.10;;;;;;;9.89;76.43;101637.57;101943;1284;139078;-89
2022/11/11 06:26:13;;;;;;;32.70;13.80;;;;;;;9.93;76.67;101639.69;102000;1301;109894;-88
2022/11/11 06:29:03;;;;;;;25.90;11.50;;;;;;;9.99;76.47;101648.37;101929;1299;139313;-89
2022/11/11 06:31:53;;;;;;;20.60;9.50;;;;;;;10.01;76.22;101654.58;102044;1302;107055;-89
2022/11/11 06:34:43;;;;;;;18.10;8.70;;;;;;;9.99;76.21;101652.79;101967;1308;139166;-89
2022/11/11 06:37:38;;;;;;;16.80;8.80;;;;;;;10.00;76.43;101652.80;102067;1295;95232;-88
2022/11/11 06:40:27;;;;;;;16.20;8.50;;;;;;;10.03;76.44;101646.21;101863;1293;139490;-88
2022/11/11 06:43:18;;;;;;;14.60;8.10;;;;;;;10.04;76.21;101642.48;102091;1290;99557;-89
2022/11/11 06:46:17;;;;;;;16.10;8.00;;;;;;;10.11;76.16;101647.61;101905;1291;138999;-90
2022/11/11 06:49:07;;;;;;;15.30;7.70;;;;;;;10.18;76.05;101652.20;102120;1307;95248;-90
2022/11/11 06:52:29;;;;;;;16.60;8.50;;;;;;;10.25;76.16;101664.76;101952;1291;138689;-88
2022/11/11 06:55:18;;;;;;;15.90;7.70;;;;;;;10.24;75.53;101663.16;102006;1290;109876;-89
2022/11/11 06:58:09;;;;;;;15.00;7.90;;;;;;;10.19;75.42;101658.21;101825;1301;138962;-88
2022/11/11 07:01:05;;;;;;;14.60;7.80;;;;;;;10.23;75.67;101657.48;101963;1292;109411;-88
2022/11/11 07:03:55;;;;;;;15.90;8.10;;;;;;;10.19;75.31;101667.98;101819;1295;140163;-88
2022/11/11 07:06:44;;;;;;;14.50;7.60;;;;;;;10.21;75.32;101664.42;102025;1301;95304;-88
2022/11/11 07:09:34;;;;;;;15.30;8.00;;;;;;;10.25;75.38;101663.52;101934;1301;138291;-88
2022/11/11 07:12:26;;;;;;;16.70;8.30;;;;;;;10.24;75.39;101651.64;102058;1301;99528;-88
2022/11/11 07:15:16;;;;;;;15.60;8.10;;;;;;;10.22;75.38;101642.59;101947;1292;138884;-92
2022/11/11 07:18:08;;;;;;;17.30;8.50;;;;;;;10.17;75.55;101651.66;102054;1306;96675;-88
2022/11/11 07:20:58;;;;;;;17.20;8.30;;;;;;;10.21;75.89;101653.06;102082;1292;95780;-90
2022/11/11 07:23:50;;;;;;;14.20;7.90;;;;;;;10.24;75.91;101650.92;102120;1301;107854;-88
2022/11/11 07:26:41;;;;;;;16.40;8.10;;;;;;;10.21;75.66;101646.50;102096;1283;98191;-87
2022/11/11 07:29:35;;;;;;;14.10;7.90;;;;;;;10.25;75.82;101648.08;102000;1295;139432;-89
2022/11/11 07:32:29;;;;;;;14.30;6.90;;;;;;;10.30;75.66;101640.42;102139;1291;95942;-90
2022/11/11 07:35:22;;;;;;;14.90;7.50;;;;;;;10.30;75.74;101637.23;101990;1305;139544;-89
2022/11/11 07:38:12;;;;;;;15.60;8.40;;;;;;;10.33;75.73;101635.79;102048;1301;109829;-88
2022/11/11 07:41:02;;;;;;;14.40;7.80;;;;;;;10.40;75.64;101626.55;101994;1301;139865;-89
2022/11/11 07:43:52;;;;;;;15.60;7.40;;;;;;;10.40;75.50;101626.91;102145;1308;109005;-90
2022/11/11 07:46:43;;;;;;;13.00;7.70;;;;;;;10.44;75.51;101625.81;102079;1285;140421;-90
2022/11/11 07:49:33;;;;;;;13.40;7.00;;;;;;;10.39;75.30;101627.61;102071;1294;95309;-92
2022/11/11 07:52:23;;;;;;;15.20;7.40;;;;;;;10.38;75.38;101632.77;101976;1300;139654;-91
2022/11/11 07:55:22;;;;;;;14.80;7.10;;;;;;;10.40;75.32;101630.10;102181;1301;99594;-88
2022/11/11 07:58:12;;;;;;;14.90;7.50;;;;;;;10.47;75.45;101633.44;101963;1301;139643;-89
2022/11/11 08:01:28;;;;;;;15.90;7.60;;;;;;;10.50;75.19;101633.94;102061;1307;95693;-90
2022/11/11 08:04:18;;;;;;;14.80;7.30;;;;;;;10.56;74.72;101637.46;102041;1293;139700;-90
2022/11/11 08:07:08;;;;;;;14.10;7.40;;;;;;;10.59;74.87;101647.39;102036;1307;108197;-88
2022/11/11 08:10:01;;;;;;;15.20;8.10;;;;;;;10.69;74.60;101652.47;101948;1301;140878;-89
2022/11/11 08:16:05;;;;;;;13.30;7.80;;;;;;;10.83;74.47;101661.25;101903;1302;139195;-89
2022/11/11 08:18:57;;;;;;;13.50;7.40;;;;;;;10.92;74.19;101662.27;102157;1302;95066;-90
2022/11/11 08:21:54;;;;;;;14.60;7.80;;;;;;;10.97;74.09;101660.27;102015;1284;139265;-90
2022/11/11 08:24:49;;;;;;;15.10;7.50;;;;;;;11.06;73.88;101658.42;102164;1291;99619;-90
2022/11/11 08:28:02;;;;;;;15.80;7.90;;;;;;;11.08;73.53;101654.67;101961;1303;138527;-90
2022/11/11 08:30:52;;;;;;;13.80;7.50;;;;;;;11.05;73.46;101656.30;101994;1301;95280;-90
2022/11/11 08:33:45;;;;;;;14.30;7.50;;;;;;;11.05;73.42;101659.84;101996;1300;138322;-91
2022/11/11 08:36:35;;;;;;;18.30;8.30;;;;;;;11.09;73.56;101664.08;102038;1299;109875;-89
2022/11/11 08:39:46;;;;;;;15.00;7.70;;;;;;;11.22;73.93;101670.55;101960;1304;139719;-88
2022/11/11 08:42:38;;;;;;;15.60;7.60;;;;;;;11.33;73.01;101672.61;102113;1302;106184;-89
2022/11/11 08:45:28;;;;;;;14.30;7.70;;;;;;;11.34;72.95;101665.65;101844;1301;138803;-90
2022/11/11 08:48:19;;;;;;;14.40;7.00;;;;;;;11.43;72.92;101661.65;101974;1302;95264;-88
2022/11/11 08:51:09;;;;;;;17.60;7.60;;;;;;;11.46;72.47;101653.27;101989;1297;109835;-88
2022/11/11 08:53:59;;;;;;;15.20;7.20;;;;;;;11.50;72.51;101662.83;102027;1308;99397;-89
2022/11/11 08:56:49;;;;;;;13.90;6.80;;;;;;;11.55;72.46;101661.36;102050;1291;109024;-89
2022/11/11 08:59:39;;;;;;;13.40;7.40;;;;;;;11.53;71.88;101669.38;101934;1290;138250;-89
2022/11/11 09:02:29;;;;;;;17.80;9.20;;;;;;;11.54;72.15;101665.82;102126;1284;95222;-90
2022/11/11 09:05:24;;;;;;;13.60;7.00;;;;;;;11.61;72.21;101668.95;102115;1301;139998;-90
2022/11/11 09:08:14;;;;;;;15.50;7.30;;;;;;;11.69;72.02;101670.83;102746;1293;98200;-88
2022/11/11 09:11:07;;;;;;;14.10;7.40;;;;;;;11.67;71.72;101682.41;102246;1283;140367;-90
2022/11/11 09:13:57;;;;;;;15.80;7.80;;;;;;;11.68;71.54;101688.09;102085;1296;96768;-89
2022/11/11 09:16:47;;;;;;;15.50;7.60;;;;;;;11.71;71.73;101687.52;102031;1293;138437;-90
2022/11/11 09:19:40;;;;;;;14.40;7.20;;;;;;;11.77;71.66;101669.31;101947;1302;109856;-89
2022/11/11 09:22:30;;;;;;;14.90;7.70;;;;;;;11.79;71.60;101665.38;101886;1277;139489;-91
2022/11/11 09:25:22;;;;;;;16.20;7.50;;;;;;;11.82;71.05;101667.13;101835;1298;110700;-89
2022/11/11 09:28:20;;;;;;;13.60;7.10;;;;;;;11.85;71.23;101667.09;101766;1291;138909;-90
2022/11/11 09:31:11;;;;;;;16.00;7.70;;;;;;;11.90;70.80;101663.30;101949;1302;95912;-89
2022/11/11 09:34:20;;;;;;;14.70;7.70;;;;;;;11.85;70.50;101652.84;101760;1301;139631;-89
2022/11/11 09:37:10;;;;;;;14.50;6.60;;;;;;;11.86;70.80;101650.52;101923;1292;100279;-88
2022/11/11 09:40:00;;;;;;;13.90;7.30;;;;;;;11.93;71.09;101640.67;101886;1284;139591;-88
2022/11/11 09:43:16;;;;;;;15.60;7.00;;;;;;;12.01;70.82;101640.77;101867;1307;95222;-89
2022/11/11 09:49:32;;;;;;;15.20;7.40;;;;;;;12.12;70.42;101641.36;98477;1300;634744;-65
2022/11/11 09:52:26;;;;;;;16.10;7.80;;;;;;;12.09;69.92;101651.54;100033;1294;138048;-65
2022/11/11 09:55:21;;;;;;;15.20;7.20;;;;;;;12.10;69.97;101651.54;99808;1299;95950;-66
2022/11/11 09:58:18;;;;;;;16.80;9.00;;;;;;;12.11;70.08;101651.14;99555;1301;137235;-65
2022/11/11 10:01:12;;;;;;;16.50;7.40;;;;;;;12.08;69.73;101643.02;99816;1301;101737;-64
2022/11/11 10:04:13;;;;;;;15.90;8.30;;;;;;;12.02;69.29;101636.30;99844;1297;138114;-65
2022/11/11 10:07:09;;;;;;;16.40;7.80;;;;;;;11.96;69.34;101638.86;100003;1296;94756;-65
2022/11/11 10:10:08;;;;;;;17.50;8.00;;;;;;;11.91;69.40;101641.56;99583;1296;137672;-66
2022/11/11 10:12:59;;;;;;;15.90;8.20;;;;;;;11.91;69.69;101635.00;99876;1296;108329;-66
2022/11/11 10:15:58;;;;;;;13.60;6.80;;;;;;;11.87;69.75;101627.03;99836;1296;138260;-65
2022/11/11 10:19:02;;;;;;;14.40;7.70;;;;;;;11.85;69.86;101624.56;99919;1297;112576;-65
2022/11/11 10:21:54;;;;;;;16.30;8.00;;;;;;;11.87;70.23;101626.67;99931;1292;94312;-65
2022/11/11 10:25:19;;;;;;;14.40;7.20;;;;;;;11.87;69.80;101622.94;100061;1297;94337;-67
2022/11/11 10:28:17;;;;;;;13.50;7.20;;;;;;;11.84;69.67;101620.65;101114;1290;138813;-79
2022/11/11 10:31:15;;;;;;;15.10;7.80;;;;;;;11.81;69.81;101611.27;101561;1319;101297;-81
2022/11/11 10:34:12;;;;;;;15.70;8.50;;;;;;;11.83;70.20;101598.44;101318;1317;138542;-84
2022/11/11 10:37:03;;;;;;;15.20;7.70;;;;;;;11.90;69.89;101598.34;102319;1281;94233;-81
2022/11/11 10:40:09;;;;;;;15.60;7.90;;;;;;;11.90;69.64;101609.02;102416;1309;140243;-81
2022/11/11 10:43:00;;;;;;;16.30;7.30;;;;;;;11.86;69.59;101617.44;102562;1304;105201;-84
2022/11/11 10:45:58;;;;;;;13.90;7.30;;;;;;;11.85;69.72;101614.23;102440;1288;138583;-80
2022/11/11 10:48:56;;;;;;;14.20;7.00;;;;;;;11.86;69.46;101616.55;101819;1298;107857;-79
2022/11/11 10:51:50;;;;;;;14.80;7.80;;;;;;;11.91;69.77;101620.39;102177;1272;138824;-81
2022/11/11 10:54:47;;;;;;;15.00;7.60;;;;;;;11.93;69.59;101632.48;102065;1290;94590;-86
2022/11/11 10:57:41;;;;;;;17.00;8.30;;;;;;;11.96;69.67;101631.73;101783;1297;139526;-84
2022/11/11 11:00:35;;;;;;;17.40;8.10;;;;;;;12.02;69.65;101620.47;101863;1292;99590;-84
2022/11/11 11:03:38;;;;;;;17.30;8.20;;;;;;;12.07;69.55;101618.45;102224;1297;140054;-84
2022/11/11 11:06:30;;;;;;;15.40;7.70;;;;;;;12.13;69.64;101607.34;102340;1285;94553;-84
2022/11/11 11:09:27;;;;;;;17.40;7.90;;;;;;;12.22;69.60;101604.02;102234;1290;139509;-86
2022/11/11 11:12:20;;;;;;;24.60;13.70;;;;;;;12.18;69.46;101604.77;102334;1298;107245;-83
2022/11/11 11:15:14;;;;;;;16.70;8.30;;;;;;;12.19;69.57;101601.91;102251;1287;139997;-86
2022/11/11 11:18:08;;;;;;;19.70;9.30;;;;;;;12.24;69.57;101597.76;102227;1294;107788;-86
2022/11/11 11:20:59;;;;;;;16.80;8.10;;;;;;;12.27;69.45;101595.74;102144;1301;139305;-85
2022/11/11 11:23:49;;;;;;;16.50;8.20;;;;;;;12.27;68.96;101599.84;102728;1293;94275;-84
2022/11/11 11:26:47;;;;;;;15.00;7.60;;;;;;;12.28;69.14;101590.58;103234;1301;139801;-83
2022/11/11 11:29:41;;;;;;;15.50;7.30;;;;;;;12.32;69.13;101582.32;103494;1293;98904;-83
2022/11/11 11:32:32;;;;;;;14.20;7.50;;;;;;;12.30;69.01;101581.10;102152;1294;139914;-83
2022/11/11 11:35:34;;;;;;;15.20;7.40;;;;;;;12.29;68.64;101575.24;103072;1287;94330;-81
2022/11/11 11:38:42;;;;;;;15.30;8.40;;;;;;;12.28;68.66;101574.91;103055;1301;139587;-83
2022/11/11 11:41:43;;;;;;;14.90;7.90;;;;;;;12.25;68.74;101578.14;102979;1294;105772;-83
2022/11/11 11:44:34;;;;;;;15.10;7.90;;;;;;;12.20;68.61;101583.56;102366;1292;140447;-86
2022/11/11 11:47:38;;;;;;;14.30;7.30;;;;;;;12.17;68.72;101579.86;102521;1288;108954;-84
2022/11/11 11:51:07;;;;;;;15.20;8.50;;;;;;;12.20;68.93;101586.23;102274;1295;139324;-86
2022/11/11 11:54:25;;;;;;;17.20;8.10;;;;;;;12.23;68.95;101584.94;102642;1284;95212;-86
2022/11/11 11:57:25;;;;;;;14.70;7.60;;;;;;;12.28;69.02;101591.64;102469;1294;138308;-85
2022/11/11 12:00:21;;;;;;;16.30;8.30;;;;;;;12.27;68.79;101599.48;102682;1285;97930;-90
2022/11/11 12:03:28;;;;;;;16.50;8.20;;;;;;;12.28;69.08;101591.63;102172;1294;140115;-87
2022/11/11 12:06:26;;;;;;;17.00;8.40;;;;;;;12.32;68.68;101584.10;102286;1287;94275;-86
2022/11/11 12:09:34;;;;;;;16.80;8.80;;;;;;;12.37;68.86;101574.23;102304;1293;137040;-86
2022/11/11 12:12:29;;;;;;;16.30;7.80;;;;;;;12.37;68.48;101574.42;102717;1293;107222;-86
2022/11/11 12:15:30;;;;;;;16.60;7.80;;;;;;;12.37;68.59;101576.91;102663;1285;138750;-82
2022/11/11 12:18:50;;;;;;;18.60;9.10;;;;;;;12.38;68.72;101574.58;102107;1293;107989;-84
2022/11/11 12:21:52;;;;;;;18.20;9.60;;;;;;;12.42;68.49;101582.73;102035;1287;139341;-85
2022/11/11 12:24:53;;;;;;;17.60;7.70;;;;;;;12.44;68.15;101589.80;102653;1293;93995;-81
2022/11/11 12:27:56;;;;;;;16.20;7.40;;;;;;;12.41;68.23;101591.28;102394;1291;139931;-83
2022/11/11 12:30:52;;;;;;;17.20;7.50;;;;;;;12.42;68.56;101596.97;102454;1287;98334;-86
2022/11/11 12:33:56;;;;;;;16.30;7.60;;;;;;;12.46;68.56;101594.05;102390;1294;140158;-83
2022/11/11 12:36:54;;;;;;;16.50;7.60;;;;;;;12.49;68.08;101597.94;102597;1294;94440;-84
2022/11/11 12:40:05;;;;;;;13.70;6.00;;;;;;;12.48;67.90;101607.39;102087;1300;139370;-82
2022/11/11 12:43:09;;;;;;;14.10;6.50;;;;;;;12.52;68.09;101610.34;102126;1293;105969;-84
2022/11/11 12:46:06;;;;;;;13.30;5.50;;;;;;;12.56;67.72;101604.06;102044;1291;139551;-86
2022/11/11 12:49:05;;;;;;;14.00;6.50;;;;;;;12.52;67.47;101606.42;102090;1301;106102;-83
2022/11/11 12:52:06;;;;;;;13.60;6.80;;;;;;;12.52;67.87;101611.40;102136;1292;139876;-82
2022/11/11 12:55:13;;;;;;;12.50;5.60;;;;;;;12.51;67.35;101619.08;102122;1294;95029;-83
2022/11/11 12:58:17;;;;;;;13.00;5.60;;;;;;;12.41;67.40;101609.63;102007;1286;137681;-83
2022/11/11 13:01:16;;;;;;;17.40;6.20;;;;;;;12.42;68.04;101606.77;102115;1294;98017;-84
2022/11/11 13:04:28;;;;;;;15.70;6.70;;;;;;;12.36;67.80;101594.36;101907;1294;138525;-83
2022/11/11 13:07:38;;;;;;;15.30;6.20;;;;;;;12.33;67.98;101581.23;102556;1286;95097;-84
2022/11/11 13:10:37;;;;;;;14.30;6.90;;;;;;;12.32;68.03;101585.36;102667;1287;94249;-83
2022/11/11 13:13:43;;;;;;;16.60;7.00;;;;;;;12.27;68.00;101581.86;102663;1287;107014;-84
2022/11/11 13:16:33;;;;;;;13.00;6.00;;;;;;;12.25;68.41;101585.98;102668;1293;98099;-84
2022/11/11 13:19:30;;;;;;;16.00;7.90;;;;;;;12.26;68.41;101580.09;102208;1293;109050;-81
2022/11/11 13:22:25;;;;;;;15.90;7.80;;;;;;;12.25;68.35;101577.79;102102;1285;139638;-83
2022/11/11 13:25:21;;;;;;;14.80;6.50;;;;;;;12.27;68.42;101577.95;102687;1290;94326;-83
2022/11/11 13:28:19;;;;;;;14.70;6.30;;;;;;;12.27;68.33;101573.50;102250;1301;138418;-81
2022/11/11 13:31:23;;;;;;;14.30;6.80;;;;;;;12.22;68.36;101571.96;102534;1292;97932;-82
2022/11/11 13:34:16;;;;;;;15.80;6.70;;;;;;;12.20;68.23;101574.11;102085;1294;139519;-81
2022/11/11 13:37:09;;;;;;;14.70;6.20;;;;;;;12.22;68.52;101573.92;102310;1277;94333;-81
2022/11/11 13:40:04;;;;;;;12.40;5.90;;;;;;;12.23;68.34;101572.30;102083;1294;138475;-82
2022/11/11 13:42:54;;;;;;;12.80;5.70;;;;;;;12.20;68.02;101574.67;102190;1292;104231;-82
2022/11/11 13:45:50;;;;;;;11.10;5.50;;;;;;;12.13;68.42;101577.95;102094;1293;139550;-84
2022/11/11 13:48:48;;;;;;;12.20;5.90;;;;;;;12.15;68.37;101580.60;102198;1292;109312;-82
2022/11/11 13:51:41;;;;;;;19.30;10.40;;;;;;;12.17;68.50;101581.29;102019;1295;139838;-82
2022/11/11 13:54:35;;;;;;;14.90;7.40;;;;;;;12.14;68.34;101580.26;102612;1287;95016;-82
2022/11/11 13:57:28;;;;;;;13.70;7.50;;;;;;;12.13;68.47;101582.23;101981;1287;139246;-84
2022/11/11 14:00:31;;;;;;;15.40;6.60;;;;;;;12.14;68.53;101578.11;102062;1287;98947;-84
2022/11/11 14:04:00;;;;;;;16.20;7.50;;;;;;;12.10;68.48;101578.36;102452;1293;140594;-83
2022/11/11 14:06:55;;;;;;;12.50;6.30;;;;;;;12.08;68.40;101579.99;102103;1295;95440;-83
2022/11/11 14:10:02;;;;;;;11.50;6.50;;;;;;;12.01;68.10;101586.65;102185;1293;139038;-85
2022/11/11 14:12:52;;;;;;;11.70;6.30;;;;;;;11.90;68.26;101587.13;102672;1278;108936;-82
2022/11/11 14:15:44;;;;;;;12.60;6.50;;;;;;;11.86;68.73;101587.17;102077;1290;139236;-85
2022/11/11 14:18:42;;;;;;;14.10;6.30;;;;;;;11.80;68.68;101583.52;102688;1301;107747;-84
2022/11/11 14:21:53;;;;;;;12.00;5.90;;;;;;;11.81;68.91;101582.61;102038;1293;143950;-83
2022/11/11 14:24:48;;;;;;;14.00;7.00;;;;;;;11.79;68.84;101584.79;102515;1285;94369;-83
2022/11/11 14:27:44;;;;;;;12.40;6.80;;;;;;;11.77;68.87;101579.45;102484;1300;138573;-83
2022/11/11 14:30:39;;;;;;;12.40;6.80;;;;;;;11.73;68.99;101583.24;102729;1301;97189;-84
2022/11/11 14:33:50;;;;;;;15.00;6.80;;;;;;;11.71;69.15;101583.27;102201;1286;139695;-84